Time;durP1;ratioP1;P1;durP2;ratioP2;P2;SDS_P1;SDS_P2;PMS_P1;PMS_P2;Temp;Humidity;BMP_temperature;BMP_pressure;BME280_temperature;BME280_humidity;BME280_pressure;Samples;Min_cycle;Max_cycle;Signal;HPM_P1;HPM_P2
2021/06/30 00:03:54;;;;;;;3.4;2.2;;;;;;;18.5;64.8;100910;;;;
2021/06/30 00:07:54;;;;;;;3.4;2.2;;;;;;;18.4;65.6;100910;;;;
2021/06/30 00:09:54;;;;;;;3.4;2.2;;;;;;;18.3;65.6;100900;;;;
2021/06/30 00:13:54;;;;;;;3.3;2.7;;;;;;;18.1;67.0;100900;;;;
2021/06/30 00:15:54;;;;;;;3.3;2.7;;;;;;;18.2;66.0;100900;;;;
2021/06/30 00:19:54;;;;;;;3.3;2.7;;;;;;;18.3;66.1;100900;;;;
2021/06/30 00:21:54;;;;;;;3.3;2.7;;;;;;;18.1;66.3;100900;;;;
2021/06/30 00:23:54;;;;;;;3.3;2.7;;;;;;;17.9;66.6;100900;;;;
2021/06/30 00:25:54;;;;;;;3.3;2.7;;;;;;;18.1;66.2;100890;;;;
2021/06/30 00:27:54;;;;;;;3.3;2.7;;;;;;;18.2;66.3;100890;;;;
2021/06/30 00:29:54;;;;;;;3.3;2.7;;;;;;;18.0;67.6;100900;;;;
2021/06/30 00:31:54;;;;;;;3.3;2.7;;;;;;;17.9;67.0;100900;;;;
2021/06/30 00:33:54;;;;;;;3.1;2.7;;;;;;;18.2;65.5;100900;;;;
2021/06/30 00:39:54;;;;;;;3.1;2.7;;;;;;;18.3;65.3;100900;;;;
2021/06/30 00:43:54;;;;;;;3.1;2.7;;;;;;;18.1;66.2;100900;;;;
2021/06/30 00:45:54;;;;;;;3.1;2.7;;;;;;;18.2;65.2;100900;;;;
2021/06/30 00:47:54;;;;;;;3.1;2.7;;;;;;;18.1;65.9;100900;;;;
2021/06/30 00:49:54;;;;;;;3.1;2.7;;;;;;;18.0;66.9;100900;;;;
2021/06/30 00:51:54;;;;;;;3.1;2.7;;;;;;;18.1;65.8;100900;;;;
2021/06/30 00:53:54;;;;;;;2.9;2.6;;;;;;;18.4;64.5;100900;;;;
2021/06/30 00:55:58;;;;;;;2.9;2.6;;;;;;;18.0;66.1;100900;;;;
2021/06/30 00:57:54;;;;;;;2.9;2.6;;;;;;;17.9;66.9;100900;;;;
2021/06/30 00:59:54;;;;;;;2.9;2.6;;;;;;;18.0;65.6;100900;;;;
2021/06/30 01:03:54;;;;;;;2.9;2.6;;;;;;;17.9;66.1;100910;;;;
2021/06/30 01:05:54;;;;;;;2.9;2.6;;;;;;;17.8;66.1;100900;;;;
2021/06/30 01:07:54;;;;;;;2.9;2.6;;;;;;;17.7;66.7;100900;;;;
2021/06/30 01:09:54;;;;;;;2.9;2.6;;;;;;;17.9;66.1;100900;;;;
2021/06/30 01:11:54;;;;;;;2.9;2.6;;;;;;;17.8;66.9;100900;;;;
2021/06/30 01:15:55;;;;;;;3.1;2.9;;;;;;;17.7;66.7;100890;;;;
2021/06/30 01:17:54;;;;;;;3.1;2.9;;;;;;;17.8;65.9;100900;;;;
2021/06/30 01:19:54;;;;;;;3.1;2.9;;;;;;;17.9;66.1;100890;;;;
2021/06/30 01:21:54;;;;;;;3.1;2.9;;;;;;;17.8;66.4;100890;;;;
2021/06/30 01:23:54;;;;;;;3.1;2.9;;;;;;;18.0;65.6;100890;;;;
2021/06/30 01:25:54;;;;;;;3.1;2.9;;;;;;;17.7;66.6;100890;;;;
2021/06/30 01:27:54;;;;;;;3.1;2.9;;;;;;;17.6;66.9;100890;;;;
2021/06/30 01:31:54;;;;;;;3.1;2.9;;;;;;;17.8;66.3;100890;;;;
2021/06/30 01:33:54;;;;;;;2.9;2.7;;;;;;;18.0;65.6;100890;;;;
2021/06/30 01:35:54;;;;;;;2.9;2.7;;;;;;;17.9;66.0;100880;;;;
2021/06/30 01:37:54;;;;;;;2.9;2.7;;;;;;;17.8;66.4;100880;;;;
2021/06/30 01:39:54;;;;;;;2.9;2.7;;;;;;;17.7;66.4;100880;;;;
2021/06/30 01:41:54;;;;;;;2.9;2.7;;;;;;;17.8;66.5;100880;;;;
2021/06/30 01:43:54;;;;;;;2.9;2.7;;;;;;;17.6;67.1;100880;;;;
2021/06/30 01:45:54;;;;;;;2.9;2.7;;;;;;;17.7;66.8;100880;;;;
2021/06/30 01:47:54;;;;;;;2.9;2.7;;;;;;;17.6;67.1;100880;;;;
2021/06/30 01:49:54;;;;;;;2.9;2.7;;;;;;;17.7;66.9;100880;;;;
2021/06/30 01:51:54;;;;;;;2.9;2.7;;;;;;;17.8;66.0;100880;;;;
2021/06/30 01:55:54;;;;;;;3.8;3.3;;;;;;;17.6;67.2;100870;;;;
2021/06/30 01:57:54;;;;;;;3.8;3.3;;;;;;;17.5;68.1;100870;;;;
2021/06/30 02:01:54;;;;;;;3.8;3.3;;;;;;;17.6;67.6;100870;;;;
2021/06/30 02:03:54;;;;;;;3.8;3.3;;;;;;;17.5;68.4;100860;;;;
2021/06/30 02:05:54;;;;;;;3.8;3.3;;;;;;;17.4;68.6;100860;;;;
2021/06/30 02:07:54;;;;;;;3.8;3.3;;;;;;;17.5;68.3;100860;;;;
2021/06/30 02:09:54;;;;;;;3.8;3.3;;;;;;;17.4;68.9;100860;;;;
2021/06/30 02:11:54;;;;;;;3.8;3.3;;;;;;;17.2;70.1;100850;;;;
2021/06/30 02:13:54;;;;;;;3.1;2.9;;;;;;;17.3;68.9;100840;;;;
2021/06/30 02:15:54;;;;;;;3.1;2.9;;;;;;;17.2;69.5;100840;;;;
2021/06/30 02:17:22;;;;;;;3.1;2.9;;;;;;;17.2;69.5;100840;;;;
2021/06/30 02:17:54;;;;;;;3.1;2.9;;;;;;;17.0;69.7;100830;;;;
2021/06/30 02:19:54;;;;;;;3.1;2.9;;;;;;;17.2;69.2;100830;;;;
2021/06/30 02:21:54;;;;;;;3.1;2.9;;;;;;;17.1;69.0;100840;;;;
2021/06/30 02:25:54;;;;;;;3.1;2.9;;;;;;;17.2;69.6;100840;;;;
2021/06/30 02:27:54;;;;;;;3.1;2.9;;;;;;;17.1;70.0;100840;;;;
2021/06/30 02:33:54;;;;;;;2.9;2.7;;;;;;;17.2;69.0;100850;;;;
2021/06/30 02:35:54;;;;;;;2.9;2.7;;;;;;;17.1;69.8;100850;;;;
2021/06/30 02:43:54;;;;;;;2.9;2.7;;;;;;;17.0;70.8;100840;;;;
2021/06/30 02:47:54;;;;;;;2.9;2.7;;;;;;;16.8;70.3;100840;;;;
2021/06/30 02:53:54;;;;;;;3.6;3.4;;;;;;;16.9;70.3;100830;;;;
2021/06/30 02:55:54;;;;;;;3.6;3.4;;;;;;;17.0;70.0;100840;;;;
2021/06/30 02:59:54;;;;;;;3.6;3.4;;;;;;;16.9;70.5;100840;;;;
2021/06/30 03:03:54;;;;;;;3.6;3.4;;;;;;;16.8;71.0;100830;;;;
2021/06/30 03:09:54;;;;;;;3.6;3.4;;;;;;;16.6;72.0;100830;;;;
2021/06/30 03:15:54;;;;;;;4.8;4.4;;;;;;;16.7;71.0;100840;;;;
2021/06/30 03:27:54;;;;;;;4.8;4.4;;;;;;;16.6;72.2;100850;;;;
2021/06/30 03:29:54;;;;;;;4.8;4.4;;;;;;;16.5;72.5;100850;;;;
2021/06/30 03:33:54;;;;;;;4.3;3.9;;;;;;;16.6;71.5;100850;;;;
2021/06/30 03:37:54;;;;;;;4.3;3.9;;;;;;;16.5;72.3;100850;;;;
2021/06/30 03:39:54;;;;;;;4.3;3.9;;;;;;;16.4;71.8;100850;;;;
2021/06/30 03:41:54;;;;;;;4.3;3.9;;;;;;;16.6;70.8;100850;;;;
2021/06/30 03:43:54;;;;;;;4.3;3.9;;;;;;;16.7;71.0;100860;;;;
2021/06/30 03:45:54;;;;;;;4.3;3.9;;;;;;;16.5;71.7;100860;;;;
2021/06/30 03:49:55;;;;;;;4.3;3.9;;;;;;;16.6;71.9;100870;;;;
2021/06/30 03:53:54;;;;;;;5.0;4.6;;;;;;;16.8;71.5;100870;;;;
2021/06/30 03:55:54;;;;;;;5.0;4.6;;;;;;;16.6;71.4;100870;;;;
2021/06/30 03:59:54;;;;;;;5.0;4.6;;;;;;;16.8;72.0;100870;;;;
2021/06/30 04:01:54;;;;;;;5.0;4.6;;;;;;;16.5;71.5;100870;;;;
2021/06/30 04:03:55;;;;;;;5.0;4.6;;;;;;;16.6;72.0;100870;;;;
2021/06/30 04:05:54;;;;;;;5.0;4.6;;;;;;;16.4;73.5;100870;;;;
2021/06/30 04:07:54;;;;;;;5.0;4.6;;;;;;;16.2;73.6;100860;;;;
2021/06/30 04:09:54;;;;;;;5.0;4.6;;;;;;;16.3;73.7;100860;;;;
2021/06/30 04:17:54;;;;;;;5.7;5.2;;;;;;;16.5;73.2;100850;;;;
2021/06/30 04:19:54;;;;;;;5.7;5.2;;;;;;;16.4;72.6;100860;;;;
2021/06/30 04:21:54;;;;;;;5.7;5.2;;;;;;;16.5;72.9;100860;;;;
2021/06/30 04:23:54;;;;;;;5.7;5.2;;;;;;;16.4;72.7;100860;;;;
2021/06/30 04:27:54;;;;;;;5.7;5.2;;;;;;;16.2;73.5;100860;;;;
2021/06/30 04:29:54;;;;;;;5.7;5.2;;;;;;;16.3;73.4;100860;;;;
2021/06/30 04:43:54;;;;;;;6.2;5.7;;;;;;;16.5;74.0;100870;;;;
2021/06/30 04:45:55;;;;;;;6.2;5.7;;;;;;;16.4;73.2;100870;;;;
2021/06/30 04:47:54;;;;;;;6.2;5.7;;;;;;;16.5;73.1;100870;;;;
2021/06/30 04:49:54;;;;;;;6.2;5.7;;;;;;;16.3;73.9;100870;;;;
2021/06/30 04:53:54;;;;;;;5.7;5.2;;;;;;;16.4;73.6;100880;;;;
2021/06/30 04:55:54;;;;;;;5.7;5.2;;;;;;;16.2;74.4;100880;;;;
2021/06/30 04:59:54;;;;;;;5.7;5.2;;;;;;;16.3;74.0;100870;;;;
2021/06/30 05:05:54;;;;;;;5.7;5.2;;;;;;;16.5;73.6;100870;;;;
2021/06/30 05:07:55;;;;;;;5.7;5.2;;;;;;;16.3;74.4;100870;;;;
2021/06/30 05:09:54;;;;;;;5.7;5.2;;;;;;;16.4;74.3;100870;;;;
2021/06/30 05:11:54;;;;;;;5.7;5.2;;;;;;;16.3;75.4;100880;;;;
2021/06/30 05:13:54;;;;;;;5.0;4.6;;;;;;;16.4;75.0;100880;;;;
2021/06/30 05:15:54;;;;;;;5.0;4.6;;;;;;;16.5;74.4;100880;;;;
2021/06/30 05:19:54;;;;;;;5.0;4.6;;;;;;;16.3;74.8;100880;;;;
2021/06/30 05:21:55;;;;;;;5.0;4.6;;;;;;;16.4;75.2;100880;;;;
2021/06/30 05:23:54;;;;;;;5.0;4.6;;;;;;;16.3;75.0;100880;;;;
2021/06/30 05:25:54;;;;;;;5.0;4.6;;;;;;;16.2;75.4;100880;;;;
2021/06/30 05:27:54;;;;;;;5.0;4.6;;;;;;;16.3;74.9;100880;;;;
2021/06/30 05:29:54;;;;;;;5.0;4.6;;;;;;;16.4;75.1;100880;;;;
2021/06/30 05:31:54;;;;;;;5.0;4.6;;;;;;;16.3;75.1;100880;;;;
2021/06/30 05:33:54;;;;;;;5.6;5.1;;;;;;;16.4;75.0;100880;;;;
2021/06/30 05:35:55;;;;;;;5.6;5.1;;;;;;;16.2;76.1;100870;;;;
2021/06/30 05:37:54;;;;;;;5.6;5.1;;;;;;;16.4;74.8;100870;;;;
2021/06/30 05:39:54;;;;;;;5.6;5.1;;;;;;;16.3;75.4;100870;;;;
2021/06/30 05:43:54;;;;;;;5.6;5.1;;;;;;;16.4;75.4;100880;;;;
2021/06/30 05:45:54;;;;;;;5.6;5.1;;;;;;;16.5;75.2;100880;;;;
2021/06/30 05:47:54;;;;;;;5.6;5.1;;;;;;;16.3;76.0;100880;;;;
2021/06/30 05:49:54;;;;;;;5.6;5.1;;;;;;;16.4;75.3;100880;;;;
2021/06/30 05:51:54;;;;;;;5.6;5.1;;;;;;;16.5;76.3;100880;;;;
2021/06/30 05:59:54;;;;;;;6.0;5.5;;;;;;;16.2;76.1;100880;;;;
2021/06/30 06:01:54;;;;;;;6.0;5.5;;;;;;;16.1;76.3;100880;;;;
2021/06/30 06:03:54;;;;;;;6.0;5.5;;;;;;;16.2;75.7;100890;;;;
2021/06/30 06:07:54;;;;;;;6.0;5.5;;;;;;;16.0;76.1;100890;;;;
2021/06/30 06:11:54;;;;;;;6.0;5.5;;;;;;;16.1;75.9;100890;;;;
2021/06/30 06:13:54;;;;;;;5.9;5.4;;;;;;;16.2;75.7;100890;;;;
2021/06/30 06:15:54;;;;;;;5.9;5.4;;;;;;;16.1;75.6;100890;;;;
2021/06/30 06:23:54;;;;;;;5.9;5.4;;;;;;;16.2;75.9;100890;;;;
2021/06/30 06:27:54;;;;;;;5.9;5.4;;;;;;;16.1;76.3;100890;;;;
2021/06/30 06:31:55;;;;;;;5.9;5.4;;;;;;;16.0;76.7;100890;;;;
2021/06/30 06:35:54;;;;;;;6.1;5.6;;;;;;;16.1;76.3;100890;;;;
2021/06/30 06:37:54;;;;;;;6.1;5.6;;;;;;;16.0;77.0;100890;;;;
2021/06/30 06:39:54;;;;;;;6.1;5.6;;;;;;;16.1;76.4;100890;;;;
2021/06/30 06:43:55;;;;;;;6.1;5.6;;;;;;;16.2;76.4;100890;;;;
2021/06/30 06:45:54;;;;;;;6.1;5.6;;;;;;;16.1;76.2;100900;;;;
2021/06/30 06:47:56;;;;;;;6.1;5.6;;;;;;;16.2;76.4;100900;;;;
2021/06/30 06:49:54;;;;;;;6.1;5.6;;;;;;;16.3;76.8;100900;;;;
2021/06/30 06:51:54;;;;;;;6.1;5.6;;;;;;;16.1;76.5;100900;;;;
2021/06/30 06:53:54;;;;;;;6.9;6.3;;;;;;;16.2;76.6;100900;;;;
2021/06/30 06:55:56;;;;;;;6.9;6.3;;;;;;;16.0;77.1;100900;;;;
2021/06/30 06:57:55;;;;;;;6.9;6.3;;;;;;;16.1;76.5;100900;;;;
2021/06/30 07:05:54;;;;;;;6.9;6.3;;;;;;;16.2;76.4;100900;;;;
2021/06/30 07:13:54;;;;;;;8.0;7.4;;;;;;;16.3;76.5;100900;;;;
2021/06/30 07:17:54;;;;;;;8.0;7.4;;;;;;;16.1;75.8;100910;;;;
2021/06/30 07:19:54;;;;;;;8.0;7.4;;;;;;;16.3;75.8;100910;;;;
2021/06/30 07:21:54;;;;;;;8.0;7.4;;;;;;;16.2;75.9;100910;;;;
2021/06/30 07:25:58;;;;;;;8.0;7.4;;;;;;;16.1;75.9;100920;;;;
2021/06/30 07:27:54;;;;;;;8.0;7.4;;;;;;;16.2;76.5;100920;;;;
2021/06/30 07:29:54;;;;;;;8.0;7.4;;;;;;;16.3;75.9;100910;;;;
2021/06/30 07:31:56;;;;;;;8.0;7.4;;;;;;;16.2;76.5;100920;;;;
2021/06/30 07:35:55;;;;;;;7.5;6.9;;;;;;;16.1;76.8;100920;;;;
2021/06/30 07:37:54;;;;;;;7.5;6.9;;;;;;;16.2;77.1;100920;;;;
2021/06/30 07:39:55;;;;;;;7.5;6.9;;;;;;;16.1;76.6;100920;;;;
2021/06/30 07:43:54;;;;;;;7.5;6.9;;;;;;;16.3;75.7;100920;;;;
2021/06/30 07:47:54;;;;;;;7.5;6.9;;;;;;;16.2;76.0;100930;;;;
2021/06/30 07:53:54;;;;;;;8.5;7.8;;;;;;;16.4;75.4;100930;;;;
2021/06/30 07:55:54;;;;;;;8.5;7.8;;;;;;;16.2;75.9;100940;;;;
2021/06/30 08:01:54;;;;;;;8.5;7.8;;;;;;;16.1;76.0;100940;;;;
2021/06/30 08:03:54;;;;;;;8.5;7.8;;;;;;;16.2;76.1;100940;;;;
2021/06/30 08:05:54;;;;;;;8.5;7.8;;;;;;;16.1;75.8;100940;;;;
2021/06/30 08:11:54;;;;;;;8.5;7.8;;;;;;;16.0;76.3;100940;;;;
2021/06/30 08:15:54;;;;;;;6.9;6.3;;;;;;;16.1;76.0;100940;;;;
2021/06/30 08:17:54;;;;;;;6.9;6.3;;;;;;;16.0;75.8;100950;;;;
2021/06/30 08:21:55;;;;;;;6.9;6.3;;;;;;;15.9;76.3;100950;;;;
2021/06/30 08:23:54;;;;;;;6.9;6.3;;;;;;;16.0;75.7;100940;;;;
2021/06/30 08:25:54;;;;;;;6.9;6.3;;;;;;;16.2;76.0;100940;;;;
2021/06/30 08:27:58;;;;;;;6.9;6.3;;;;;;;16.1;76.1;100940;;;;
2021/06/30 08:35:55;;;;;;;7.2;6.7;;;;;;;15.9;76.2;100940;;;;
2021/06/30 08:37:54;;;;;;;7.2;6.7;;;;;;;16.0;76.3;100940;;;;
2021/06/30 08:39:55;;;;;;;7.2;6.7;;;;;;;16.1;75.7;100940;;;;
2021/06/30 08:45:54;;;;;;;7.2;6.7;;;;;;;16.2;75.8;100950;;;;
2021/06/30 08:47:55;;;;;;;7.2;6.7;;;;;;;16.1;75.3;100940;;;;
2021/06/30 08:53:55;;;;;;;7.3;6.8;;;;;;;16.2;75.6;100950;;;;
2021/06/30 09:01:54;;;;;;;7.3;6.8;;;;;;;16.1;75.3;100960;;;;
2021/06/30 09:07:54;;;;;;;7.3;6.8;;;;;;;16.4;75.4;100960;;;;
2021/06/30 09:09:54;;;;;;;7.3;6.8;;;;;;;16.3;74.8;100960;;;;
2021/06/30 09:15:54;;;;;;;6.7;6.2;;;;;;;16.2;75.0;100960;;;;
2021/06/30 09:19:54;;;;;;;6.7;6.2;;;;;;;16.3;75.0;100970;;;;
2021/06/30 09:21:54;;;;;;;6.7;6.2;;;;;;;16.2;75.5;100970;;;;
2021/06/30 09:27:54;;;;;;;6.7;6.2;;;;;;;16.3;76.0;100970;;;;
2021/06/30 09:29:54;;;;;;;6.7;6.2;;;;;;;16.4;75.2;100960;;;;
2021/06/30 09:31:54;;;;;;;6.7;6.2;;;;;;;16.3;75.8;100970;;;;
2021/06/30 09:33:54;;;;;;;6.2;5.7;;;;;;;16.5;74.7;100970;;;;
2021/06/30 09:37:54;;;;;;;6.2;5.7;;;;;;;16.4;76.4;100970;;;;
2021/06/30 09:39:54;;;;;;;6.2;5.7;;;;;;;16.5;76.0;100970;;;;
2021/06/30 09:41:54;;;;;;;6.2;5.7;;;;;;;16.6;75.5;100970;;;;
2021/06/30 09:43:54;;;;;;;6.2;5.7;;;;;;;16.8;75.2;100980;;;;
2021/06/30 09:49:54;;;;;;;6.2;5.7;;;;;;;16.5;75.8;100980;;;;
2021/06/30 09:51:54;;;;;;;6.2;5.7;;;;;;;16.6;75.4;100980;;;;
2021/06/30 09:53:54;;;;;;;5.9;5.5;;;;;;;16.7;74.3;100980;;;;
2021/06/30 09:55:54;;;;;;;5.9;5.5;;;;;;;16.8;75.1;100980;;;;
2021/06/30 09:59:54;;;;;;;5.9;5.5;;;;;;;16.7;75.4;100980;;;;
2021/06/30 10:01:54;;;;;;;5.9;5.5;;;;;;;16.9;75.1;100980;;;;
2021/06/30 10:03:54;;;;;;;5.9;5.5;;;;;;;16.8;74.0;100980;;;;
2021/06/30 10:11:54;;;;;;;5.9;5.5;;;;;;;17.0;75.7;100990;;;;
2021/06/30 10:13:54;;;;;;;6.7;6.1;;;;;;;17.1;74.4;100990;;;;
2021/06/30 10:15:54;;;;;;;6.7;6.1;;;;;;;17.0;74.8;100990;;;;
2021/06/30 10:17:54;;;;;;;6.7;6.1;;;;;;;17.1;74.7;100990;;;;
2021/06/30 10:19:55;;;;;;;6.7;6.1;;;;;;;17.0;75.4;100990;;;;
2021/06/30 10:29:54;;;;;;;6.7;6.1;;;;;;;17.2;74.3;100980;;;;
2021/06/30 10:37:54;;;;;;;7.4;6.8;;;;;;;17.0;75.2;100980;;;;
2021/06/30 10:39:54;;;;;;;7.4;6.8;;;;;;;17.1;75.3;100980;;;;
2021/06/30 10:41:54;;;;;;;7.4;6.8;;;;;;;17.0;75.2;100980;;;;
2021/06/30 10:45:54;;;;;;;7.4;6.8;;;;;;;17.1;74.9;100970;;;;
2021/06/30 10:47:54;;;;;;;7.4;6.8;;;;;;;17.2;76.3;100960;;;;
2021/06/30 10:49:54;;;;;;;7.4;6.8;;;;;;;17.5;75.9;100960;;;;
2021/06/30 10:51:54;;;;;;;7.6;6.9;;;;;;;17.6;75.9;100960;;;;
2021/06/30 10:55:55;;;;;;;7.6;6.9;;;;;;;17.8;74.4;100960;;;;
2021/06/30 10:57:54;;;;;;;7.6;6.9;;;;;;;18.0;75.0;100960;;;;
2021/06/30 10:59:54;;;;;;;7.6;6.9;;;;;;;18.2;74.4;100970;;;;
2021/06/30 11:01:54;;;;;;;7.6;6.9;;;;;;;18.0;73.5;100960;;;;
2021/06/30 11:03:54;;;;;;;7.6;6.9;;;;;;;18.1;72.4;100970;;;;
2021/06/30 11:05:54;;;;;;;7.6;6.9;;;;;;;18.0;72.5;100970;;;;
2021/06/30 11:07:54;;;;;;;7.6;6.9;;;;;;;18.1;73.9;100980;;;;
2021/06/30 11:09:54;;;;;;;7.6;6.9;;;;;;;18.3;74.0;100980;;;;
2021/06/30 11:11:54;;;;;;;6.6;6.1;;;;;;;18.2;72.0;100980;;;;
2021/06/30 11:17:54;;;;;;;6.6;6.1;;;;;;;18.4;72.5;100990;;;;
2021/06/30 11:21:54;;;;;;;6.6;6.1;;;;;;;18.5;72.1;100990;;;;
2021/06/30 11:23:55;;;;;;;6.6;6.1;;;;;;;18.3;72.0;100990;;;;
2021/06/30 11:29:54;;;;;;;6.6;6.1;;;;;;;18.2;72.3;100990;;;;
2021/06/30 11:31:54;;;;;;;5.8;5.4;;;;;;;18.3;71.9;101000;;;;
2021/06/30 11:33:54;;;;;;;5.8;5.4;;;;;;;18.2;72.0;101000;;;;
2021/06/30 11:35:54;;;;;;;5.8;5.4;;;;;;;18.0;72.6;101000;;;;
2021/06/30 11:37:54;;;;;;;5.8;5.4;;;;;;;18.2;72.3;101000;;;;
2021/06/30 11:39:54;;;;;;;5.8;5.4;;;;;;;18.1;71.7;101010;;;;
2021/06/30 11:41:54;;;;;;;5.8;5.4;;;;;;;18.4;70.8;101010;;;;
2021/06/30 11:43:55;;;;;;;5.8;5.4;;;;;;;18.2;71.6;101000;;;;
2021/06/30 11:45:55;;;;;;;5.8;5.4;;;;;;;18.3;72.4;101010;;;;
2021/06/30 11:47:54;;;;;;;5.8;5.4;;;;;;;18.2;72.1;101010;;;;
2021/06/30 11:49:54;;;;;;;5.8;5.4;;;;;;;18.3;71.1;101010;;;;
2021/06/30 11:51:54;;;;;;;5.5;5.1;;;;;;;18.1;71.5;101010;;;;
2021/06/30 11:53:54;;;;;;;5.5;5.1;;;;;;;18.2;71.4;101010;;;;
2021/06/30 11:57:54;;;;;;;5.5;5.1;;;;;;;18.1;71.2;101010;;;;
2021/06/30 12:03:54;;;;;;;5.5;5.1;;;;;;;18.0;71.6;101010;;;;
2021/06/30 12:05:54;;;;;;;5.5;5.1;;;;;;;18.1;72.1;101010;;;;
2021/06/30 12:07:54;;;;;;;5.5;5.1;;;;;;;18.2;72.0;101010;;;;
2021/06/30 12:09:54;;;;;;;5.5;5.1;;;;;;;18.3;71.4;101010;;;;
2021/06/30 12:11:55;;;;;;;5.8;5.4;;;;;;;18.4;71.1;101010;;;;
2021/06/30 12:17:55;;;;;;;5.8;5.4;;;;;;;18.1;71.3;101020;;;;
2021/06/30 12:19:54;;;;;;;5.8;5.4;;;;;;;17.8;72.4;101020;;;;
2021/06/30 12:21:54;;;;;;;5.8;5.4;;;;;;;17.9;72.4;101020;;;;
2021/06/30 12:23:54;;;;;;;5.8;5.4;;;;;;;18.0;72.0;101020;;;;
2021/06/30 12:25:54;;;;;;;5.8;5.4;;;;;;;17.9;71.9;101020;;;;
2021/06/30 12:27:55;;;;;;;5.8;5.4;;;;;;;18.0;71.6;101020;;;;
2021/06/30 12:31:54;;;;;;;7.1;6.6;;;;;;;17.9;71.8;101020;;;;
2021/06/30 12:33:54;;;;;;;7.1;6.6;;;;;;;17.8;72.4;101020;;;;
2021/06/30 12:35:54;;;;;;;7.1;6.6;;;;;;;18.1;71.7;101020;;;;
2021/06/30 12:39:54;;;;;;;7.1;6.6;;;;;;;18.3;72.4;101030;;;;
2021/06/30 12:43:54;;;;;;;7.1;6.6;;;;;;;18.4;72.2;101020;;;;
2021/06/30 12:45:54;;;;;;;7.1;6.6;;;;;;;18.3;71.2;101020;;;;
2021/06/30 12:47:54;;;;;;;7.1;6.6;;;;;;;18.4;70.8;101020;;;;
2021/06/30 12:49:54;;;;;;;7.1;6.6;;;;;;;18.5;71.4;101020;;;;
2021/06/30 12:51:54;;;;;;;7.0;6.4;;;;;;;18.6;71.0;101030;;;;
2021/06/30 12:57:54;;;;;;;7.0;6.4;;;;;;;18.7;70.3;101030;;;;
2021/06/30 13:01:56;;;;;;;7.0;6.4;;;;;;;18.8;69.6;101020;;;;
2021/06/30 13:03:54;;;;;;;7.0;6.4;;;;;;;18.3;70.3;101020;;;;
2021/06/30 13:05:54;;;;;;;7.0;6.4;;;;;;;18.1;71.1;101030;;;;
2021/06/30 13:07:54;;;;;;;7.0;6.4;;;;;;;18.0;71.3;101020;;;;
2021/06/30 13:09:54;;;;;;;7.0;6.4;;;;;;;18.1;71.7;101030;;;;
2021/06/30 13:13:54;;;;;;;7.1;6.6;;;;;;;18.0;71.6;101030;;;;
2021/06/30 13:15:54;;;;;;;7.1;6.6;;;;;;;18.1;71.5;101030;;;;
2021/06/30 13:17:54;;;;;;;7.1;6.6;;;;;;;18.0;71.5;101030;;;;
2021/06/30 13:21:54;;;;;;;7.1;6.6;;;;;;;18.2;71.7;101030;;;;
2021/06/30 13:26:01;;;;;;;7.1;6.6;;;;;;;18.3;70.3;101040;;;;
2021/06/30 13:28:00;;;;;;;7.1;6.6;;;;;;;18.2;71.5;101040;;;;
2021/06/30 13:35:54;;;;;;;7.4;6.7;;;;;;;18.0;72.1;101040;;;;
2021/06/30 13:41:54;;;;;;;7.4;6.7;;;;;;;17.8;71.6;101040;;;;
2021/06/30 13:43:54;;;;;;;7.4;6.7;;;;;;;17.9;72.3;101050;;;;
2021/06/30 13:45:54;;;;;;;7.4;6.7;;;;;;;18.1;72.1;101050;;;;
2021/06/30 13:47:54;;;;;;;7.4;6.7;;;;;;;18.3;72.2;101060;;;;
2021/06/30 13:51:54;;;;;;;7.4;6.7;;;;;;;18.5;71.9;101060;;;;
2021/06/30 13:53:54;;;;;;;7.4;6.7;;;;;;;18.6;71.1;101060;;;;
2021/06/30 13:55:54;;;;;;;7.4;6.7;;;;;;;18.4;72.2;101060;;;;
2021/06/30 14:01:54;;;;;;;7.4;6.7;;;;;;;18.5;71.7;101060;;;;
2021/06/30 14:03:54;;;;;;;7.4;6.7;;;;;;;18.4;72.4;101060;;;;
2021/06/30 14:05:54;;;;;;;7.4;6.7;;;;;;;18.5;72.4;101060;;;;
2021/06/30 14:07:54;;;;;;;7.4;6.7;;;;;;;18.3;71.9;101060;;;;
2021/06/30 14:11:54;;;;;;;7.7;6.9;;;;;;;18.4;71.3;101060;;;;
2021/06/30 14:17:55;;;;;;;7.7;6.9;;;;;;;18.3;71.6;101070;;;;
2021/06/30 14:21:54;;;;;;;7.7;6.9;;;;;;;18.2;72.3;101070;;;;
2021/06/30 14:25:54;;;;;;;7.7;6.9;;;;;;;18.3;71.2;101070;;;;
2021/06/30 14:31:54;;;;;;;7.1;6.5;;;;;;;18.3;71.5;101070;;;;
2021/06/30 14:35:54;;;;;;;7.1;6.5;;;;;;;18.4;72.2;101070;;;;
2021/06/30 14:37:54;;;;;;;7.1;6.5;;;;;;;18.5;70.2;101080;;;;
2021/06/30 14:39:54;;;;;;;7.1;6.5;;;;;;;18.4;71.2;101070;;;;
2021/06/30 14:41:54;;;;;;;7.1;6.5;;;;;;;18.5;70.5;101080;;;;
2021/06/30 14:45:59;;;;;;;7.1;6.5;;;;;;;18.6;70.7;101080;;;;
2021/06/30 14:47:58;;;;;;;7.1;6.5;;;;;;;18.5;71.2;101080;;;;
2021/06/30 14:49:54;;;;;;;7.1;6.5;;;;;;;18.6;70.6;101080;;;;
2021/06/30 14:51:54;;;;;;;9.9;6.9;;;;;;;18.7;69.9;101080;;;;
2021/06/30 14:53:54;;;;;;;9.9;6.9;;;;;;;18.4;70.5;101080;;;;
2021/06/30 14:57:54;;;;;;;9.9;6.9;;;;;;;18.5;71.5;101080;;;;
2021/06/30 14:59:54;;;;;;;9.9;6.9;;;;;;;18.4;70.9;101080;;;;
2021/06/30 15:01:54;;;;;;;9.9;6.9;;;;;;;18.5;70.0;101080;;;;
2021/06/30 15:03:54;;;;;;;9.9;6.9;;;;;;;18.6;71.1;101070;;;;
2021/06/30 15:07:54;;;;;;;9.9;6.9;;;;;;;18.5;70.4;101080;;;;
2021/06/30 15:09:54;;;;;;;9.9;6.9;;;;;;;18.4;69.7;101090;;;;
2021/06/30 15:11:54;;;;;;;6.5;5.5;;;;;;;18.3;69.7;101080;;;;
2021/06/30 15:13:55;;;;;;;6.5;5.5;;;;;;;18.0;70.2;101090;;;;
2021/06/30 15:17:54;;;;;;;6.5;5.5;;;;;;;18.2;70.3;101090;;;;
2021/06/30 15:19:54;;;;;;;6.5;5.5;;;;;;;18.3;69.1;101090;;;;
2021/06/30 15:21:54;;;;;;;6.5;5.5;;;;;;;18.4;69.1;101090;;;;
2021/06/30 15:23:54;;;;;;;6.5;5.5;;;;;;;18.1;69.5;101090;;;;
2021/06/30 15:25:54;;;;;;;6.5;5.5;;;;;;;17.9;70.1;101090;;;;
2021/06/30 15:27:54;;;;;;;6.5;5.5;;;;;;;17.8;69.5;101090;;;;
2021/06/30 15:29:55;;;;;;;6.5;5.5;;;;;;;17.7;70.0;101090;;;;
2021/06/30 15:31:54;;;;;;;8.0;7.2;;;;;;;17.8;69.5;101090;;;;
2021/06/30 15:33:54;;;;;;;8.0;7.2;;;;;;;17.7;69.6;101090;;;;
2021/06/30 15:35:54;;;;;;;8.0;7.2;;;;;;;17.6;70.0;101090;;;;
2021/06/30 15:37:54;;;;;;;8.0;7.2;;;;;;;17.5;70.0;101090;;;;
2021/06/30 15:39:55;;;;;;;8.0;7.2;;;;;;;17.4;71.0;101090;;;;
2021/06/30 15:41:54;;;;;;;8.0;7.2;;;;;;;17.6;70.4;101100;;;;
2021/06/30 15:43:54;;;;;;;8.0;7.2;;;;;;;17.7;69.8;101090;;;;
2021/06/30 15:45:54;;;;;;;8.0;7.2;;;;;;;17.6;70.3;101090;;;;
2021/06/30 15:47:54;;;;;;;8.0;7.2;;;;;;;17.7;69.9;101090;;;;
2021/06/30 15:49:54;;;;;;;8.0;7.2;;;;;;;17.6;70.2;101090;;;;
2021/06/30 15:51:54;;;;;;;9.7;8.7;;;;;;;17.7;70.3;101090;;;;
2021/06/30 15:53:54;;;;;;;9.7;8.7;;;;;;;17.6;70.2;101090;;;;
2021/06/30 15:55:54;;;;;;;9.7;8.7;;;;;;;17.5;70.3;101100;;;;
2021/06/30 15:59:54;;;;;;;9.7;8.7;;;;;;;17.4;71.0;101090;;;;
2021/06/30 16:01:54;;;;;;;9.7;8.7;;;;;;;17.5;71.2;101090;;;;
2021/06/30 16:03:54;;;;;;;9.7;8.7;;;;;;;17.3;71.2;101090;;;;
2021/06/30 16:05:58;;;;;;;9.7;8.7;;;;;;;17.4;71.1;101090;;;;
2021/06/30 16:07:54;;;;;;;9.7;8.7;;;;;;;17.3;71.2;101090;;;;
2021/06/30 16:09:54;;;;;;;9.7;8.7;;;;;;;17.4;71.6;101090;;;;
2021/06/30 16:11:54;;;;;;;12.8;11.6;;;;;;;17.3;71.3;101090;;;;
2021/06/30 16:13:54;;;;;;;12.8;11.6;;;;;;;17.4;71.1;101100;;;;
2021/06/30 16:19:54;;;;;;;12.8;11.6;;;;;;;17.5;71.0;101100;;;;
2021/06/30 16:21:54;;;;;;;12.8;11.6;;;;;;;17.4;71.2;101100;;;;
2021/06/30 16:23:54;;;;;;;12.8;11.6;;;;;;;17.6;70.5;101100;;;;
2021/06/30 16:29:54;;;;;;;12.8;11.6;;;;;;;17.4;71.8;101100;;;;
2021/06/30 16:37:57;;;;;;;16.8;15.3;;;;;;;17.2;72.8;101100;;;;
2021/06/30 16:47:54;;;;;;;16.8;15.3;;;;;;;17.1;72.8;101100;;;;
2021/06/30 16:49:54;;;;;;;16.8;15.3;;;;;;;17.3;72.2;101100;;;;
2021/06/30 16:51:54;;;;;;;10.7;9.7;;;;;;;17.0;72.8;101100;;;;
2021/06/30 16:53:55;;;;;;;10.7;9.7;;;;;;;17.1;72.7;101100;;;;
2021/06/30 16:55:56;;;;;;;10.7;9.7;;;;;;;17.0;72.8;101100;;;;
2021/06/30 16:57:54;;;;;;;10.7;9.7;;;;;;;16.9;73.8;101100;;;;
2021/06/30 16:59:54;;;;;;;10.7;9.7;;;;;;;17.0;72.5;101110;;;;
2021/06/30 17:03:56;;;;;;;10.7;9.7;;;;;;;16.9;73.3;101100;;;;
2021/06/30 17:07:54;;;;;;;10.7;9.7;;;;;;;16.8;73.2;101100;;;;
2021/06/30 17:09:57;;;;;;;10.7;9.7;;;;;;;16.9;72.5;101100;;;;
2021/06/30 17:13:54;;;;;;;8.2;7.4;;;;;;;16.8;72.9;101110;;;;
2021/06/30 17:15:54;;;;;;;8.2;7.4;;;;;;;16.9;72.7;101110;;;;
2021/06/30 17:17:54;;;;;;;8.2;7.4;;;;;;;16.6;73.6;101110;;;;
2021/06/30 17:21:54;;;;;;;8.2;7.4;;;;;;;16.7;72.8;101120;;;;
2021/06/30 17:23:54;;;;;;;8.2;7.4;;;;;;;16.5;74.1;101120;;;;
2021/06/30 17:27:54;;;;;;;8.2;7.4;;;;;;;16.4;74.3;101120;;;;
2021/06/30 17:31:54;;;;;;;9.6;8.7;;;;;;;16.6;73.1;101120;;;;
2021/06/30 17:33:54;;;;;;;9.6;8.7;;;;;;;16.5;74.0;101120;;;;
2021/06/30 17:35:55;;;;;;;9.6;8.7;;;;;;;16.6;73.7;101120;;;;
2021/06/30 17:37:54;;;;;;;9.6;8.7;;;;;;;16.7;73.1;101120;;;;
2021/06/30 17:39:55;;;;;;;9.6;8.7;;;;;;;16.6;73.9;101120;;;;
2021/06/30 17:41:54;;;;;;;9.6;8.7;;;;;;;16.7;73.3;101130;;;;
2021/06/30 17:43:54;;;;;;;9.6;8.7;;;;;;;16.6;73.1;101130;;;;
2021/06/30 17:45:54;;;;;;;9.6;8.7;;;;;;;16.5;73.1;101120;;;;
2021/06/30 17:49:54;;;;;;;9.6;8.7;;;;;;;16.6;72.8;101130;;;;
2021/06/30 17:55:54;;;;;;;9.9;9.0;;;;;;;16.5;72.5;101140;;;;
2021/06/30 18:01:57;;;;;;;9.9;9.0;;;;;;;16.4;72.8;101150;;;;
2021/06/30 18:03:54;;;;;;;9.9;9.0;;;;;;;16.5;73.0;101150;;;;
2021/06/30 18:05:54;;;;;;;9.9;9.0;;;;;;;16.4;73.1;101150;;;;
2021/06/30 18:07:55;;;;;;;9.9;9.0;;;;;;;16.2;73.2;101150;;;;
2021/06/30 18:09:54;;;;;;;9.9;9.0;;;;;;;16.3;73.2;101150;;;;
2021/06/30 18:11:54;;;;;;;8.4;7.7;;;;;;;16.2;73.4;101150;;;;
2021/06/30 18:13:54;;;;;;;8.4;7.7;;;;;;;16.3;73.2;101150;;;;
2021/06/30 18:15:55;;;;;;;8.4;7.7;;;;;;;16.4;72.6;101160;;;;
2021/06/30 18:17:55;;;;;;;8.4;7.7;;;;;;;16.2;72.9;101160;;;;
2021/06/30 18:21:54;;;;;;;8.4;7.7;;;;;;;16.4;73.0;101160;;;;
2021/06/30 18:25:54;;;;;;;8.4;7.7;;;;;;;16.5;72.7;101160;;;;
2021/06/30 18:27:56;;;;;;;8.4;7.7;;;;;;;16.4;72.2;101170;;;;
2021/06/30 18:29:54;;;;;;;8.4;7.7;;;;;;;16.1;73.3;101170;;;;
2021/06/30 18:35:55;;;;;;;6.9;6.3;;;;;;;16.0;73.4;101170;;;;
2021/06/30 18:37:54;;;;;;;6.9;6.3;;;;;;;16.1;74.1;101170;;;;
2021/06/30 18:39:57;;;;;;;6.9;6.3;;;;;;;16.3;72.2;101170;;;;
2021/06/30 18:41:58;;;;;;;6.9;6.3;;;;;;;16.2;73.4;101170;;;;
2021/06/30 18:43:54;;;;;;;6.9;6.3;;;;;;;16.3;73.2;101170;;;;
2021/06/30 18:45:07;;;;;;;6.9;6.3;;;;;;;16.3;73.2;101170;;;;
2021/06/30 18:45:54;;;;;;;6.9;6.3;;;;;;;16.0;74.3;101170;;;;
2021/06/30 18:47:54;;;;;;;6.9;6.3;;;;;;;15.9;74.1;101180;;;;
2021/06/30 18:51:54;;;;;;;5.0;4.6;;;;;;;15.9;73.5;101180;;;;
2021/06/30 18:53:54;;;;;;;5.0;4.6;;;;;;;16.1;72.6;101180;;;;
2021/06/30 18:55:54;;;;;;;5.0;4.6;;;;;;;16.0;73.0;101180;;;;
2021/06/30 18:59:56;;;;;;;5.0;4.6;;;;;;;16.1;72.4;101190;;;;
2021/06/30 19:01:55;;;;;;;5.0;4.6;;;;;;;16.0;72.6;101190;;;;
2021/06/30 19:03:54;;;;;;;5.0;4.6;;;;;;;15.9;72.9;101190;;;;